Metar Aviation Weather Data YMML

11°C Temp
9°C Dewpoint
% Humidity
Temperature
16 KM/H
10 MPH
9 KTS
360°
Due North

Wind Speed
Clear
Conditions
Pressure 1020.92 (hPa) - 30.15 (in)
Visibility 6.2 (mi) - 10 (km)

Current Conditions
YMML
Metar :YMML 201630Z 36009KT CAVOK 11/09 Q1021 NOSIG
Tue 21st May 02:30 am

  Metar Aviation API Data Provided by https://www.checkwx.com/ PHP scripts by weather34.com ©2019